createdAt,value
2019-03-16T00:01:22.042Z,5.60
2019-03-16T00:03:51.200Z,5.63
2019-03-16T00:06:20.411Z,5.65
2019-03-16T00:08:49.622Z,5.66
2019-03-16T00:11:18.561Z,5.65
2019-03-16T00:13:47.396Z,5.62
2019-03-16T00:16:16.283Z,4.83
2019-03-16T00:18:45.263Z,5.57
2019-03-16T00:21:14.285Z,5.59
2019-03-16T00:23:43.478Z,5.60
2019-03-16T00:26:12.743Z,5.62
2019-03-16T00:28:41.878Z,5.63
2019-03-16T00:31:11.119Z,5.61
2019-03-16T00:33:40.461Z,5.60
2019-03-16T00:36:09.773Z,5.62
2019-03-16T00:38:38.915Z,5.62
2019-03-16T00:41:07.883Z,5.64
2019-03-16T00:43:37.020Z,5.65
2019-03-16T00:46:06.026Z,5.70
2019-03-16T00:48:34.990Z,5.71
2019-03-16T00:51:04.196Z,5.69
2019-03-16T00:53:33.041Z,5.69
2019-03-16T00:56:02.030Z,5.72
2019-03-16T00:58:31.345Z,5.73
2019-03-16T01:01:00.776Z,5.76
2019-03-16T01:03:30.015Z,5.77
2019-03-16T01:05:59.407Z,5.77
2019-03-16T01:08:29.097Z,5.74
2019-03-16T01:10:58.320Z,5.73
2019-03-16T01:13:27.562Z,5.72
2019-03-16T01:15:57.420Z,5.69
2019-03-16T01:18:26.322Z,5.70
2019-03-16T01:20:55.489Z,5.70
2019-03-16T01:23:25.053Z,5.71
2019-03-16T01:25:54.008Z,5.69
2019-03-16T01:28:23.111Z,5.68
2019-03-16T01:30:52.323Z,5.63
2019-03-16T01:33:21.550Z,5.60
2019-03-16T01:35:50.520Z,5.58
2019-03-16T01:38:19.670Z,5.56
2019-03-16T01:40:48.989Z,5.55
2019-03-16T01:43:18.195Z,5.53
2019-03-16T01:45:47.204Z,5.52
2019-03-16T01:48:16.166Z,5.52
2019-03-16T01:50:45.049Z,5.56
2019-03-16T01:53:14.263Z,5.55
2019-03-16T01:55:43.149Z,5.56
2019-03-16T01:58:12.192Z,5.60
2019-03-16T02:00:41.245Z,5.64
2019-03-16T02:03:10.534Z,5.67
2019-03-16T02:05:39.597Z,5.67
2019-03-16T02:08:08.465Z,5.67
2019-03-16T02:10:37.454Z,5.67
2019-03-16T02:13:06.518Z,5.70
2019-03-16T02:15:35.813Z,5.71
2019-03-16T02:18:05.640Z,5.72
2019-03-16T02:20:34.801Z,5.73
2019-03-16T02:23:03.855Z,5.76
2019-03-16T02:25:32.867Z,5.76
2019-03-16T02:28:02.103Z,5.77
2019-03-16T02:30:31.034Z,5.80
2019-03-16T02:33:12.834Z,5.81
2019-03-16T02:35:31.335Z,5.83
2019-03-16T02:38:00.616Z,5.83
2019-03-16T02:40:29.511Z,5.84
2019-03-16T02:42:58.760Z,5.85
2019-03-16T02:45:27.959Z,5.86
2019-03-16T02:47:57.139Z,5.86
2019-03-16T02:50:26.363Z,5.85
2019-03-16T02:52:55.490Z,5.86
2019-03-16T02:55:24.454Z,5.85
2019-03-16T02:57:53.704Z,5.82
2019-03-16T03:00:22.855Z,5.80
2019-03-16T03:02:52.095Z,5.79
2019-03-16T03:05:21.362Z,5.79
2019-03-16T03:07:50.427Z,5.80
2019-03-16T03:10:19.693Z,5.78
2019-03-16T03:12:48.667Z,5.76
2019-03-16T03:15:17.705Z,5.76
2019-03-16T03:17:46.712Z,5.75
2019-03-16T03:20:16.501Z,5.76
2019-03-16T03:22:45.562Z,5.77
2019-03-16T03:25:14.530Z,5.78
2019-03-16T03:27:43.940Z,5.78
2019-03-16T03:30:13.285Z,5.79
2019-03-16T03:32:42.519Z,5.80
2019-03-16T03:35:11.904Z,5.79
2019-03-16T03:37:41.360Z,5.81
2019-03-16T03:40:10.696Z,5.82
2019-03-16T03:42:40.166Z,5.82
2019-03-16T03:45:12.849Z,5.80
2019-03-16T03:47:42.095Z,5.80
2019-03-16T03:50:11.751Z,5.80
2019-03-16T03:52:41.043Z,5.79
2019-03-16T03:55:10.621Z,5.76
2019-03-16T03:57:39.839Z,5.73
2019-03-16T04:00:09.997Z,5.71
2019-03-16T04:02:39.335Z,5.71
2019-03-16T04:05:09.059Z,5.71
2019-03-16T04:07:38.691Z,5.71
2019-03-16T04:10:08.111Z,5.71
2019-03-16T04:12:37.030Z,5.69
2019-03-16T04:15:06.951Z,5.69
2019-03-16T04:17:36.122Z,5.67
2019-03-16T04:20:06.315Z,5.69
2019-03-16T04:22:35.575Z,5.68
2019-03-16T04:25:04.778Z,5.69
2019-03-16T04:27:34.438Z,5.69
2019-03-16T04:30:03.526Z,5.69
2019-03-16T04:32:32.503Z,5.69
2019-03-16T04:35:02.224Z,5.68
2019-03-16T04:37:31.191Z,5.66
2019-03-16T04:40:00.491Z,5.65
2019-03-16T04:42:29.935Z,5.10
2019-03-16T04:44:59.061Z,5.65
2019-03-16T04:47:28.150Z,5.67
2019-03-16T04:49:57.253Z,5.65
2019-03-16T04:52:26.570Z,5.65
2019-03-16T04:54:55.573Z,5.62
2019-03-16T04:57:25.309Z,5.63
2019-03-16T04:59:55.162Z,5.62
2019-03-16T05:02:24.726Z,5.61
2019-03-16T05:04:53.992Z,5.61
2019-03-16T05:07:24.490Z,5.59
2019-03-16T05:09:53.854Z,5.57
2019-03-16T05:12:23.292Z,5.56
2019-03-16T05:14:52.757Z,5.54
2019-03-16T05:17:22.610Z,5.54
2019-03-16T05:19:51.755Z,5.55
2019-03-16T05:22:21.197Z,5.53
2019-03-16T05:24:50.719Z,5.52
2019-03-16T05:27:20.312Z,5.49
2019-03-16T05:29:49.444Z,5.48
2019-03-16T05:32:18.480Z,5.49
2019-03-16T05:34:56.401Z,5.49
2019-03-16T05:37:18.565Z,5.48
2019-03-16T05:39:47.832Z,5.46
2019-03-16T05:42:17.216Z,5.45
2019-03-16T05:44:46.261Z,5.45
2019-03-16T05:47:15.784Z,5.46
2019-03-16T05:49:44.897Z,5.45
2019-03-16T05:52:16.407Z,5.46
2019-03-16T05:54:45.852Z,5.46
2019-03-16T05:57:15.298Z,5.49
2019-03-16T05:59:44.789Z,5.46
2019-03-16T06:02:14.218Z,5.46
2019-03-16T06:04:43.247Z,5.44
2019-03-16T06:07:12.909Z,5.44
2019-03-16T06:09:42.133Z,5.44
2019-03-16T06:12:11.580Z,5.44
2019-03-16T06:14:40.951Z,5.46
2019-03-16T06:17:09.853Z,5.47
2019-03-16T06:19:39.804Z,5.49
2019-03-16T06:22:09.434Z,5.50
2019-03-16T06:24:38.700Z,5.52
2019-03-16T06:27:07.719Z,5.54
2019-03-16T06:29:37.107Z,5.55
2019-03-16T06:32:06.236Z,5.58
2019-03-16T06:34:35.416Z,5.61
2019-03-16T06:37:04.657Z,5.61
2019-03-16T06:39:34.262Z,5.63
2019-03-16T06:42:03.980Z,5.64
2019-03-16T06:44:33.399Z,5.67
2019-03-16T06:47:03.172Z,5.67
2019-03-16T06:49:32.334Z,5.68
2019-03-16T06:52:02.349Z,5.72
2019-03-16T06:54:31.782Z,5.77
2019-03-16T06:57:01.123Z,5.84
2019-03-16T06:59:30.092Z,5.92
2019-03-16T07:01:59.392Z,5.99
2019-03-16T07:04:29.344Z,6.06
2019-03-16T07:06:59.048Z,6.13
2019-03-16T07:09:31.651Z,6.16
2019-03-16T07:12:01.820Z,6.19
2019-03-16T07:14:32.370Z,6.20
2019-03-16T07:17:02.630Z,6.21
2019-03-16T07:19:33.870Z,6.24
2019-03-16T07:22:03.369Z,6.26
2019-03-16T07:24:32.863Z,6.27
2019-03-16T07:27:02.640Z,6.29
2019-03-16T07:29:31.675Z,6.28
2019-03-16T07:32:01.059Z,6.31
2019-03-16T07:34:30.761Z,6.32
2019-03-16T07:37:00.145Z,6.34
2019-03-16T07:39:29.675Z,6.38
2019-03-16T07:42:00.638Z,6.41
2019-03-16T07:44:30.734Z,6.45
2019-03-16T07:47:00.327Z,6.50
2019-03-16T07:49:29.792Z,6.55
2019-03-16T07:51:59.624Z,6.61
2019-03-16T07:54:31.169Z,6.66
2019-03-16T07:56:59.763Z,6.70
2019-03-16T07:59:29.240Z,6.73
2019-03-16T08:01:59.270Z,6.75
2019-03-16T08:04:28.621Z,6.75
2019-03-16T08:06:57.827Z,6.78
2019-03-16T08:09:32.643Z,6.85
2019-03-16T08:12:02.130Z,6.93
2019-03-16T08:14:31.650Z,7.02
2019-03-16T08:17:00.684Z,7.05
2019-03-16T08:19:32.418Z,7.08
2019-03-16T08:22:02.200Z,7.14
2019-03-16T08:24:33.006Z,7.24
2019-03-16T08:27:01.918Z,7.32
2019-03-16T08:29:32.781Z,7.38
2019-03-16T08:32:02.476Z,7.43
2019-03-16T08:34:31.880Z,7.50
2019-03-16T08:37:02.120Z,7.54
2019-03-16T08:39:31.961Z,7.59
2019-03-16T08:42:01.297Z,7.63
2019-03-16T08:44:30.526Z,7.68
2019-03-16T08:47:00.610Z,7.72
2019-03-16T08:49:30.394Z,7.80
2019-03-16T08:52:00.058Z,7.86
2019-03-16T08:54:29.756Z,7.86
2019-03-16T08:56:59.097Z,7.81
2019-03-16T08:59:29.392Z,7.80
2019-03-16T09:01:58.872Z,7.79
2019-03-16T09:04:28.210Z,7.79
2019-03-16T09:06:57.445Z,7.79
2019-03-16T09:09:26.743Z,7.71
2019-03-16T09:11:58.173Z,7.68
2019-03-16T09:14:27.106Z,7.65
2019-03-16T09:16:58.538Z,7.64
2019-03-16T09:19:28.878Z,7.61
2019-03-16T09:21:58.302Z,7.63
2019-03-16T09:24:27.742Z,7.64
2019-03-16T09:26:58.196Z,7.63
2019-03-16T09:29:27.517Z,7.65
2019-03-16T09:31:57.251Z,7.70
2019-03-16T09:34:27.369Z,7.70
2019-03-16T09:36:56.602Z,7.72
2019-03-16T09:39:26.994Z,7.72
2019-03-16T09:41:59.283Z,7.72
2019-03-16T09:44:28.350Z,7.67
2019-03-16T09:46:58.324Z,7.58
2019-03-16T09:49:27.681Z,7.48
2019-03-16T09:51:57.013Z,7.40
2019-03-16T09:54:29.141Z,7.35
2019-03-16T09:57:01.755Z,7.28
2019-03-16T09:59:32.148Z,7.17
2019-03-16T10:02:01.491Z,7.10
2019-03-16T10:04:31.166Z,7.10
2019-03-16T10:07:00.708Z,7.11
2019-03-16T10:09:30.588Z,7.15
2019-03-16T10:12:00.118Z,7.15
2019-03-16T10:14:29.015Z,7.21
2019-03-16T10:16:58.324Z,7.32
2019-03-16T10:19:28.318Z,7.38
2019-03-16T10:21:58.194Z,7.40
2019-03-16T10:24:27.459Z,7.45
2019-03-16T10:26:56.431Z,7.49
2019-03-16T10:29:25.378Z,7.55
2019-03-16T10:31:54.327Z,7.54
2019-03-16T10:34:23.372Z,7.58
2019-03-16T10:36:52.312Z,7.58
2019-03-16T10:39:21.031Z,7.58
2019-03-16T10:41:50.279Z,7.60
2019-03-16T10:44:19.244Z,7.57
2019-03-16T10:46:48.289Z,7.46
2019-03-16T10:49:17.672Z,7.46
2019-03-16T10:51:46.886Z,7.41
2019-03-16T10:54:15.711Z,7.43
2019-03-16T10:56:44.643Z,7.50
2019-03-16T10:59:13.640Z,7.61
2019-03-16T11:01:42.695Z,7.73
2019-03-16T11:04:11.751Z,7.79
2019-03-16T11:06:40.853Z,7.80
2019-03-16T11:09:10.137Z,7.83
2019-03-16T11:11:39.337Z,7.81
2019-03-16T11:14:08.128Z,7.80
2019-03-16T11:16:37.090Z,7.73
2019-03-16T11:19:05.960Z,7.57
2019-03-16T11:21:34.980Z,7.46
2019-03-16T11:24:03.781Z,7.40
2019-03-16T11:26:32.468Z,7.36
2019-03-16T11:29:08.896Z,7.32
2019-03-16T11:31:31.710Z,7.31
2019-03-16T11:34:00.978Z,7.27
2019-03-16T11:36:34.116Z,7.21
2019-03-16T11:39:00.403Z,7.21
2019-03-16T11:41:29.449Z,7.30
2019-03-16T11:43:58.657Z,7.25
2019-03-16T11:46:27.628Z,7.14
2019-03-16T11:48:56.676Z,7.05
2019-03-16T11:51:25.612Z,7.01
2019-03-16T11:53:55.218Z,6.96
2019-03-16T11:56:24.313Z,6.89
2019-03-16T11:58:53.016Z,6.88
2019-03-16T12:01:21.736Z,6.81
2019-03-16T12:03:50.789Z,6.80
2019-03-16T12:06:19.520Z,6.87
2019-03-16T12:08:48.613Z,6.90
2019-03-16T12:11:17.722Z,6.85
2019-03-16T12:13:46.716Z,6.80
2019-03-16T12:16:15.671Z,6.76
2019-03-16T12:18:44.379Z,6.73
2019-03-16T12:21:13.341Z,6.72
2019-03-16T12:23:42.278Z,6.71
2019-03-16T12:26:11.238Z,6.68
2019-03-16T12:28:40.185Z,6.51
2019-03-16T12:31:14.750Z,6.43
2019-03-16T12:33:44.532Z,6.31
2019-03-16T12:36:13.497Z,6.27
2019-03-16T12:38:43.551Z,6.27
2019-03-16T12:41:12.553Z,6.21
2019-03-16T12:43:41.515Z,6.09
2019-03-16T12:46:10.463Z,6.08
2019-03-16T12:48:39.886Z,6.11
2019-03-16T12:51:08.835Z,6.09
2019-03-16T12:53:39.668Z,6.06
2019-03-16T12:56:08.801Z,6.02
2019-03-16T12:58:39.066Z,6.04
2019-03-16T13:01:07.999Z,6.04
2019-03-16T13:03:37.184Z,5.99
2019-03-16T13:06:06.208Z,5.90
2019-03-16T13:08:35.252Z,5.87
2019-03-16T13:11:04.287Z,5.79
2019-03-16T13:13:33.379Z,5.78
2019-03-16T13:16:04.575Z,5.77
2019-03-16T13:18:33.830Z,5.74
2019-03-16T13:21:02.793Z,5.64
2019-03-16T13:23:31.843Z,5.53
2019-03-16T13:26:01.718Z,5.47
2019-03-16T13:28:30.447Z,5.50
2019-03-16T13:30:59.674Z,5.46
2019-03-16T13:33:28.685Z,5.38
2019-03-16T13:35:57.914Z,5.35
2019-03-16T13:38:26.833Z,5.28
2019-03-16T13:40:56.015Z,5.25
2019-03-16T13:43:28.277Z,5.22
2019-03-16T13:46:02.172Z,5.20
2019-03-16T13:48:31.900Z,5.22
2019-03-16T13:51:00.934Z,5.27
2019-03-16T13:53:32.728Z,5.32
2019-03-16T13:56:05.986Z,5.37
2019-03-16T13:58:36.061Z,5.30
2019-03-16T14:01:05.926Z,5.25
2019-03-16T14:03:34.666Z,5.23
2019-03-16T14:06:03.708Z,5.29
2019-03-16T14:08:32.674Z,5.31
2019-03-16T14:11:01.632Z,5.33
2019-03-16T14:13:30.758Z,5.33
2019-03-16T14:15:59.714Z,5.34
2019-03-16T14:18:28.569Z,5.32
2019-03-16T14:20:57.506Z,5.30
2019-03-16T14:23:26.528Z,5.36
2019-03-16T14:25:55.515Z,5.41
2019-03-16T14:28:24.559Z,5.35
2019-03-16T14:30:53.866Z,5.41
2019-03-16T14:33:22.940Z,5.46
2019-03-16T14:35:51.971Z,5.44
2019-03-16T14:38:21.086Z,5.46
2019-03-16T14:40:50.040Z,5.48
2019-03-16T14:43:19.000Z,5.43
2019-03-16T14:45:49.138Z,5.42
2019-03-16T14:48:18.562Z,5.49
2019-03-16T14:50:47.380Z,5.54
2019-03-16T14:53:16.332Z,5.60
2019-03-16T14:55:45.293Z,5.70
2019-03-16T14:58:14.304Z,5.72
2019-03-16T15:00:43.379Z,5.75
2019-03-16T15:03:12.168Z,5.77
2019-03-16T15:05:41.232Z,5.81
2019-03-16T15:08:10.271Z,5.86
2019-03-16T15:10:42.530Z,5.91
2019-03-16T15:13:11.557Z,5.94
2019-03-16T15:15:40.843Z,5.96
2019-03-16T15:18:10.080Z,5.97
2019-03-16T15:20:38.838Z,5.99
2019-03-16T15:23:07.820Z,6.01
2019-03-16T15:25:36.770Z,6.05
2019-03-16T15:28:05.782Z,6.10
2019-03-16T15:30:34.792Z,6.12
2019-03-16T15:33:03.608Z,6.18
2019-03-16T15:35:32.563Z,6.21
2019-03-16T15:38:01.749Z,6.27
2019-03-16T15:40:30.695Z,6.33
2019-03-16T15:42:59.652Z,6.35
2019-03-16T15:45:28.805Z,6.45
2019-03-16T15:47:57.963Z,6.52
2019-03-16T15:50:27.076Z,6.58
2019-03-16T15:52:56.352Z,6.68
2019-03-16T15:55:25.389Z,6.76
2019-03-16T15:58:06.929Z,6.84
2019-03-16T16:00:24.853Z,6.88
2019-03-16T16:02:53.816Z,6.93
2019-03-16T16:05:22.617Z,7.03
2019-03-16T16:07:51.578Z,7.05
2019-03-16T16:10:20.687Z,7.15
2019-03-16T16:12:49.920Z,7.18
2019-03-16T16:15:19.895Z,7.23
2019-03-16T16:17:48.925Z,7.29
2019-03-16T16:20:17.962Z,7.33
2019-03-16T16:22:47.277Z,7.36
2019-03-16T16:25:16.452Z,7.37
2019-03-16T16:27:45.659Z,7.38
2019-03-16T16:30:15.724Z,7.42
2019-03-16T16:32:44.945Z,7.49
2019-03-16T16:35:14.091Z,7.50
2019-03-16T16:37:43.491Z,7.52
2019-03-16T16:40:12.595Z,7.57
2019-03-16T16:42:41.672Z,7.63
2019-03-16T16:45:11.090Z,7.65
2019-03-16T16:47:39.879Z,7.70
2019-03-16T16:50:10.887Z,7.73
2019-03-16T16:52:39.934Z,7.74
2019-03-16T16:55:09.100Z,7.77
2019-03-16T16:57:38.044Z,7.79
2019-03-16T17:00:09.861Z,7.79
2019-03-16T17:02:38.994Z,7.82
2019-03-16T17:05:08.020Z,7.82
2019-03-16T17:07:36.977Z,7.84
2019-03-16T17:10:06.878Z,7.85
2019-03-16T17:12:35.924Z,7.84
2019-03-16T17:15:04.926Z,7.85
2019-03-16T17:17:35.382Z,7.84
2019-03-16T17:20:05.063Z,7.83
2019-03-16T17:22:37.212Z,7.85
2019-03-16T17:25:05.431Z,7.87
2019-03-16T17:27:34.686Z,7.88
2019-03-16T17:30:03.681Z,7.87
2019-03-16T17:32:32.641Z,7.87
2019-03-16T17:35:01.602Z,7.89
2019-03-16T17:37:30.348Z,7.90
2019-03-16T17:39:59.512Z,7.89
2019-03-16T17:42:28.454Z,7.89
2019-03-16T17:44:57.360Z,7.91
2019-03-16T17:47:26.358Z,7.90
2019-03-16T17:49:55.270Z,7.93
2019-03-16T17:52:24.000Z,7.92
2019-03-16T17:54:54.274Z,7.93
2019-03-16T17:57:22.980Z,7.96
2019-03-16T17:59:51.884Z,7.95
2019-03-16T18:02:20.826Z,7.97
2019-03-16T18:04:49.818Z,7.98
2019-03-16T18:07:18.773Z,7.98
2019-03-16T18:09:47.720Z,7.95
2019-03-16T18:12:16.820Z,7.99
2019-03-16T18:14:48.199Z,7.98
2019-03-16T18:17:17.301Z,7.99
2019-03-16T18:19:46.229Z,8.02
2019-03-16T18:22:15.184Z,8.02
2019-03-16T18:24:44.132Z,8.00
2019-03-16T18:27:13.121Z,7.99
2019-03-16T18:29:42.062Z,7.99
2019-03-16T18:32:11.027Z,7.97
2019-03-16T18:34:42.093Z,7.96
2019-03-16T18:37:11.139Z,7.98
2019-03-16T18:39:40.066Z,7.97
2019-03-16T18:42:09.147Z,7.99
2019-03-16T18:44:38.113Z,7.97
2019-03-16T18:47:07.092Z,7.98
2019-03-16T18:49:36.063Z,7.97
2019-03-16T18:52:05.090Z,7.96
2019-03-16T18:54:33.821Z,7.97
2019-03-16T18:57:02.875Z,7.96
2019-03-16T18:59:31.888Z,7.98
2019-03-16T19:02:01.078Z,8.00
2019-03-16T19:04:30.016Z,7.97
2019-03-16T19:06:58.958Z,7.97
2019-03-16T19:09:28.088Z,7.97
2019-03-16T19:11:57.022Z,7.97
2019-03-16T19:14:26.134Z,7.98
2019-03-16T19:16:55.202Z,7.95
2019-03-16T19:19:24.267Z,7.95
2019-03-16T19:21:53.319Z,7.96
2019-03-16T19:24:22.352Z,7.97
2019-03-16T19:26:51.412Z,7.98
2019-03-16T19:29:20.303Z,7.96
2019-03-16T19:31:49.312Z,7.96
2019-03-16T19:34:18.274Z,7.97
2019-03-16T19:36:47.340Z,7.99
2019-03-16T19:39:16.050Z,8.02
2019-03-16T19:41:45.098Z,8.02
2019-03-16T19:44:14.142Z,8.00
2019-03-16T19:46:43.209Z,7.99
2019-03-16T19:49:12.096Z,7.99
2019-03-16T19:51:41.037Z,8.00
2019-03-16T19:54:09.991Z,8.01
2019-03-16T19:56:38.923Z,8.04
2019-03-16T19:59:07.877Z,8.08
2019-03-16T20:01:36.940Z,8.06
2019-03-16T20:04:06.622Z,8.06
2019-03-16T20:06:35.548Z,8.04
2019-03-16T20:09:06.280Z,8.05
2019-03-16T20:11:35.305Z,8.06
2019-03-16T20:14:04.318Z,8.06
2019-03-16T20:16:33.279Z,8.06
2019-03-16T20:19:01.992Z,8.05
2019-03-16T20:21:30.997Z,8.04
2019-03-16T20:23:59.962Z,8.09
2019-03-16T20:26:28.886Z,8.11
2019-03-16T20:28:58.000Z,8.12
2019-03-16T20:31:27.039Z,8.16
2019-03-16T20:33:55.771Z,8.17
2019-03-16T20:36:24.863Z,7.99
2019-03-16T20:38:53.829Z,8.14
2019-03-16T20:41:35.198Z,8.15
2019-03-16T20:43:53.584Z,8.19
2019-03-16T20:46:22.248Z,8.22
2019-03-16T20:48:51.211Z,8.22
2019-03-16T20:51:20.176Z,8.25
2019-03-16T20:53:49.197Z,8.24
2019-03-16T20:56:17.884Z,8.20
2019-03-16T20:58:46.921Z,8.19
2019-03-16T21:01:16.033Z,8.20
2019-03-16T21:03:45.013Z,8.17
2019-03-16T21:06:14.105Z,8.21
2019-03-16T21:08:42.821Z,8.21
2019-03-16T21:11:11.802Z,8.29
2019-03-16T21:13:41.154Z,8.29
2019-03-16T21:16:09.873Z,8.27
2019-03-16T21:18:38.857Z,8.27
2019-03-16T21:21:07.844Z,8.26
2019-03-16T21:23:36.788Z,8.24
2019-03-16T21:26:06.146Z,8.21
2019-03-16T21:28:35.096Z,8.18
2019-03-16T21:31:04.121Z,8.16
2019-03-16T21:33:33.303Z,8.24
2019-03-16T21:36:02.332Z,8.28
2019-03-16T21:38:31.277Z,8.26
2019-03-16T21:41:02.971Z,8.26
2019-03-16T21:43:32.008Z,8.29
2019-03-16T21:46:00.779Z,8.33
2019-03-16T21:48:29.872Z,8.38
2019-03-16T21:50:59.071Z,8.39
2019-03-16T21:53:28.002Z,8.41
2019-03-16T21:55:56.847Z,8.40
2019-03-16T21:58:25.609Z,8.42
2019-03-16T22:00:54.994Z,8.38
2019-03-16T22:03:24.050Z,8.37
2019-03-16T22:05:53.110Z,8.35
2019-03-16T22:08:22.066Z,8.33
2019-03-16T22:10:51.057Z,8.35
2019-03-16T22:13:23.462Z,8.38
2019-03-16T22:15:52.659Z,8.41
2019-03-16T22:18:21.402Z,8.36
2019-03-16T22:20:50.773Z,8.37
2019-03-16T22:23:19.743Z,8.36
2019-03-16T22:25:48.864Z,8.38
2019-03-16T22:28:17.758Z,8.39
2019-03-16T22:30:46.765Z,8.43
2019-03-16T22:33:15.861Z,8.47
2019-03-16T22:35:44.674Z,8.45
2019-03-16T22:38:13.685Z,8.43
2019-03-16T22:40:42.767Z,8.39
2019-03-16T22:43:11.753Z,8.38
2019-03-16T22:45:40.601Z,8.40
2019-03-16T22:48:09.383Z,8.46
2019-03-16T22:50:38.624Z,8.46
2019-03-16T22:53:07.775Z,8.45
2019-03-16T22:55:36.678Z,8.43
2019-03-16T22:58:05.608Z,8.43
2019-03-16T23:00:47.511Z,8.44
2019-03-16T23:03:16.635Z,8.49
2019-03-16T23:05:45.541Z,8.49
2019-03-16T23:08:14.491Z,8.52
2019-03-16T23:10:43.456Z,8.53
2019-03-16T23:13:12.460Z,8.51
2019-03-16T23:15:41.420Z,8.49
2019-03-16T23:18:10.130Z,8.50
2019-03-16T23:20:39.156Z,8.48
2019-03-16T23:23:08.797Z,8.50
2019-03-16T23:25:38.078Z,8.49
2019-03-16T23:28:07.135Z,8.51
2019-03-16T23:30:36.172Z,8.52
2019-03-16T23:33:05.028Z,8.55
2019-03-16T23:35:34.116Z,8.55
2019-03-16T23:38:03.154Z,8.58
2019-03-16T23:40:32.125Z,8.59
2019-03-16T23:43:01.165Z,8.61
2019-03-16T23:45:30.738Z,8.59
2019-03-16T23:47:59.548Z,8.61
2019-03-16T23:50:28.504Z,8.63
2019-03-16T23:52:57.307Z,8.65
2019-03-16T23:55:26.284Z,8.66
2019-03-16T23:57:56.476Z,8.68
